createdAt,value
2023-01-09T00:04:35.652Z,38.10
2023-01-09T00:09:38.325Z,44.70
2023-01-09T00:14:41.039Z,44.70
2023-01-09T00:19:43.895Z,47.50
2023-01-09T00:24:46.597Z,40.60
2023-01-09T00:29:49.756Z,40.70
2023-01-09T00:34:53.673Z,43.70
2023-01-09T00:39:56.477Z,45.40
2023-01-09T00:45:03.260Z,51.20
2023-01-09T00:50:11.385Z,52.90
2023-01-09T00:55:15.430Z,38.30
2023-01-09T01:00:19.130Z,47.30
2023-01-09T01:05:40.490Z,39.90
2023-01-09T01:10:44.921Z,47.10
2023-01-09T01:15:47.729Z,51.10
2023-01-09T01:20:50.428Z,48.30
2023-01-09T01:25:53.187Z,45.70
2023-01-09T01:30:55.989Z,44.90
2023-01-09T01:36:05.063Z,58.20
2023-01-09T01:41:07.774Z,41.50
2023-01-09T01:46:10.512Z,37.30
2023-01-09T01:51:16.558Z,47.00
2023-01-09T01:56:35.584Z,36.40
2023-01-09T02:01:42.591Z,36.00
2023-01-09T02:06:48.537Z,48.30
2023-01-09T02:11:57.266Z,43.20
2023-01-09T02:17:28.007Z,41.50
2023-01-09T02:23:05.184Z,30.40
2023-01-09T02:28:40.180Z,41.50
2023-01-09T02:33:55.047Z,51.20
2023-01-09T02:39:08.515Z,48.00
2023-01-09T02:44:22.601Z,43.20
2023-01-09T02:49:25.706Z,55.00
2023-01-09T02:54:43.405Z,49.60
2023-01-09T03:00:13.696Z,30.80
2023-01-09T03:05:23.132Z,29.90
2023-01-09T03:10:37.996Z,50.60
2023-01-09T03:15:44.520Z,49.40
2023-01-09T03:20:48.589Z,54.70
2023-01-09T03:25:51.351Z,33.20
2023-01-09T03:30:54.152Z,48.10
2023-01-09T03:35:56.832Z,35.90
2023-01-09T03:40:59.659Z,40.90
2023-01-09T03:46:03.508Z,34.40
2023-01-09T03:51:06.422Z,48.40
2023-01-09T03:56:09.188Z,30.00
2023-01-09T04:01:12.959Z,45.70
2023-01-09T04:06:15.916Z,52.00
2023-01-09T04:11:18.719Z,57.60
2023-01-09T04:16:21.591Z,37.00
2023-01-09T04:21:24.423Z,27.30
2023-01-09T04:26:27.224Z,54.90
2023-01-09T04:31:30.021Z,46.10
2023-01-09T04:36:34.878Z,37.60
2023-01-09T04:41:49.876Z,52.30
2023-01-09T04:46:54.113Z,34.90
2023-01-09T04:51:57.293Z,46.40
2023-01-09T04:57:00.128Z,47.30
2023-01-09T05:02:03.530Z,60.40
2023-01-09T05:07:06.598Z,43.20
2023-01-09T05:12:09.784Z,34.30
2023-01-09T05:17:12.443Z,39.90
2023-01-09T05:22:15.262Z,37.20
2023-01-09T05:27:18.251Z,54.00
2023-01-09T05:32:21.055Z,43.90
2023-01-09T05:37:23.845Z,32.90
2023-01-09T05:42:26.657Z,32.00
2023-01-09T05:47:29.459Z,57.50
2023-01-09T05:52:32.375Z,37.70
2023-01-09T05:57:35.169Z,53.00
2023-01-09T06:02:38.040Z,39.00
2023-01-09T06:07:42.110Z,39.60
2023-01-09T06:12:51.841Z,35.20
2023-01-09T06:17:54.651Z,38.50
2023-01-09T06:22:57.574Z,30.40
2023-01-09T06:28:00.313Z,33.60
2023-01-09T06:33:03.276Z,32.30
2023-01-09T06:38:06.315Z,36.60
2023-01-09T06:43:09.184Z,39.70
2023-01-09T06:48:12.460Z,39.10
2023-01-09T06:53:15.408Z,33.90
2023-01-09T06:58:18.614Z,44.60
2023-01-09T07:03:22.805Z,41.40
2023-01-09T07:08:25.662Z,44.30
2023-01-09T07:13:28.387Z,40.80
2023-01-09T07:18:31.663Z,53.90
2023-01-09T07:23:35.181Z,28.10
2023-01-09T07:28:37.861Z,36.60
2023-01-09T07:33:41.061Z,40.40
2023-01-09T07:38:43.746Z,38.60
2023-01-09T07:43:46.449Z,43.70
2023-01-09T07:48:49.190Z,27.40
2023-01-09T07:53:51.991Z,34.40
2023-01-09T07:58:54.820Z,50.50
2023-01-09T08:03:57.699Z,45.10
2023-01-09T08:09:00.810Z,39.00
2023-01-09T08:14:04.022Z,33.70
2023-01-09T08:19:06.809Z,35.80
2023-01-09T08:24:10.137Z,28.60
2023-01-09T08:29:13.074Z,26.60
2023-01-09T08:34:15.835Z,42.70
2023-01-09T08:39:18.617Z,47.80
2023-01-09T08:44:40.630Z,42.30
2023-01-09T08:49:43.432Z,27.60
2023-01-09T08:54:46.194Z,43.80
2023-01-09T08:59:48.945Z,35.00
2023-01-09T09:04:56.154Z,30.50
2023-01-09T09:09:58.811Z,26.00
2023-01-09T09:15:20.339Z,32.20
2023-01-09T09:20:25.303Z,37.80
2023-01-09T09:25:28.974Z,43.80
2023-01-09T09:30:31.812Z,39.60
2023-01-09T09:35:34.884Z,32.60
2023-01-09T09:41:28.942Z,26.80
2023-01-09T09:46:50.984Z,32.00
2023-01-09T09:52:18.961Z,33.40
2023-01-09T09:57:29.632Z,32.80
2023-01-09T10:02:54.242Z,28.90
2023-01-09T10:08:14.929Z,32.40
2023-01-09T10:13:38.866Z,35.60
2023-01-09T10:18:54.515Z,29.90
2023-01-09T10:24:32.982Z,37.20
2023-01-09T10:29:55.990Z,37.50
2023-01-09T10:35:08.144Z,29.00
2023-01-09T10:40:29.155Z,33.00
2023-01-09T10:45:39.936Z,40.70
2023-01-09T10:50:46.004Z,32.40
2023-01-09T10:55:54.491Z,31.20
2023-01-09T11:01:00.440Z,23.30
2023-01-09T11:06:03.850Z,23.90
2023-01-09T11:11:06.760Z,42.50
2023-01-09T11:16:24.033Z,23.80
2023-01-09T11:21:32.598Z,28.50
2023-01-09T11:26:35.638Z,38.20
2023-01-09T11:31:40.055Z,31.10
2023-01-09T11:36:43.536Z,37.00
2023-01-09T11:41:48.317Z,26.20
2023-01-09T11:46:52.495Z,19.00
2023-01-09T11:52:21.049Z,35.20
2023-01-09T11:57:26.152Z,33.90
2023-01-09T12:02:53.225Z,35.60
2023-01-09T12:08:11.170Z,30.20
2023-01-09T12:13:26.015Z,27.00
2023-01-09T12:19:04.191Z,34.60
2023-01-09T12:24:49.493Z,21.00
2023-01-09T12:30:01.409Z,36.00
2023-01-09T12:35:30.205Z,33.30
2023-01-09T12:40:40.813Z,25.80
2023-01-09T12:45:59.407Z,30.10
2023-01-09T12:51:21.013Z,36.70
2023-01-09T12:56:29.651Z,32.80
2023-01-09T13:01:44.221Z,32.50
2023-01-09T13:06:59.713Z,33.40
2023-01-09T13:12:12.563Z,35.10
2023-01-09T13:17:33.232Z,32.60
2023-01-09T13:22:36.402Z,43.00
2023-01-09T13:27:41.456Z,27.80
2023-01-09T13:32:44.258Z,34.50
2023-01-09T13:37:52.675Z,43.50
2023-01-09T13:43:03.402Z,34.20
2023-01-09T13:48:09.864Z,45.20
2023-01-09T13:53:18.634Z,36.10
2023-01-09T13:58:22.929Z,29.00
2023-01-09T14:03:33.514Z,39.50
2023-01-09T14:08:36.679Z,30.90
2023-01-09T14:13:44.466Z,40.70
2023-01-09T14:18:53.661Z,36.60
2023-01-09T14:24:07.095Z,30.30
2023-01-09T14:29:28.380Z,22.90
2023-01-09T14:34:37.431Z,28.40
2023-01-09T14:39:45.336Z,21.70
2023-01-09T14:45:06.543Z,22.90
2023-01-09T14:50:45.459Z,25.10
2023-01-09T14:55:57.831Z,20.10
2023-01-09T15:01:03.391Z,27.90
2023-01-09T15:06:10.654Z,22.00
2023-01-09T15:11:14.187Z,17.30
2023-01-09T15:16:20.679Z,19.60
2023-01-09T15:21:31.047Z,19.10
2023-01-09T15:26:33.891Z,27.70
2023-01-09T15:31:39.027Z,38.70
2023-01-09T15:36:41.954Z,33.30
2023-01-09T15:42:05.987Z,21.00
2023-01-09T15:47:15.663Z,16.10
2023-01-09T15:52:19.405Z,19.00
2023-01-09T15:57:24.966Z,19.00
2023-01-09T16:02:46.275Z,36.40
2023-01-09T16:07:51.753Z,22.50
2023-01-09T16:12:54.952Z,22.20
2023-01-09T16:18:14.042Z,23.10
2023-01-09T16:23:30.872Z,19.00
2023-01-09T16:28:33.752Z,14.70
2023-01-09T16:33:45.799Z,24.40
2023-01-09T16:38:48.838Z,17.20
2023-01-09T16:43:52.244Z,15.00
2023-01-09T16:48:55.239Z,17.10
2023-01-09T16:53:57.956Z,20.40
2023-01-09T16:59:00.603Z,20.30
2023-01-09T17:04:10.898Z,13.30
2023-01-09T17:09:16.376Z,18.00
2023-01-09T17:14:19.141Z,13.60
2023-01-09T17:19:25.626Z,19.80
2023-01-09T17:24:46.965Z,13.50
2023-01-09T17:29:49.708Z,18.10
2023-01-09T17:34:52.409Z,16.30
2023-01-09T17:40:01.130Z,16.80
2023-01-09T17:45:04.707Z,21.10
2023-01-09T17:50:17.650Z,17.80
2023-01-09T17:55:20.379Z,17.50
2023-01-09T18:00:27.749Z,18.10
2023-01-09T18:05:30.923Z,17.40
2023-01-09T18:10:33.702Z,16.00
2023-01-09T18:15:37.147Z,18.40
2023-01-09T18:20:40.786Z,20.40
2023-01-09T18:25:44.205Z,21.40
2023-01-09T18:30:50.379Z,39.10
2023-01-09T18:35:53.124Z,37.30
2023-01-09T18:41:00.043Z,21.10
2023-01-09T18:46:09.641Z,19.70
2023-01-09T18:51:12.404Z,18.50
2023-01-09T18:56:15.722Z,16.00
2023-01-09T19:01:19.672Z,20.30
2023-01-09T19:06:23.050Z,23.60
2023-01-09T19:11:26.072Z,22.70
2023-01-09T19:16:28.980Z,21.70
2023-01-09T19:21:32.430Z,17.70
2023-01-09T19:26:35.198Z,18.30
2023-01-09T19:31:38.098Z,20.00
2023-01-09T19:36:40.911Z,18.10
2023-01-09T19:41:44.416Z,21.60
2023-01-09T19:46:47.215Z,16.40
2023-01-09T19:51:51.759Z,19.70
2023-01-09T19:56:54.564Z,18.80
2023-01-09T20:01:58.254Z,23.40
2023-01-09T20:07:01.248Z,23.70
2023-01-09T20:12:05.446Z,39.90
2023-01-09T20:17:08.160Z,49.20
2023-01-09T20:22:11.653Z,42.00
2023-01-09T20:27:14.444Z,21.80
2023-01-09T20:32:17.192Z,46.20
2023-01-09T20:37:19.948Z,28.90
2023-01-09T20:42:22.635Z,30.70
2023-01-09T20:47:26.361Z,37.30
2023-01-09T20:52:29.092Z,37.30
2023-01-09T20:57:32.179Z,29.20
2023-01-09T21:02:34.972Z,37.20
2023-01-09T21:07:37.795Z,29.00
2023-01-09T21:12:40.601Z,49.00
2023-01-09T21:17:43.928Z,50.60
2023-01-09T21:22:46.683Z,45.10
2023-01-09T21:27:51.151Z,50.90
2023-01-09T21:32:53.938Z,49.40
2023-01-09T21:37:58.098Z,46.20
2023-01-09T21:43:19.512Z,51.10
2023-01-09T21:48:24.553Z,54.60
2023-01-09T21:53:27.260Z,45.50
2023-01-09T21:58:29.958Z,44.50
2023-01-09T22:03:32.703Z,53.00
2023-01-09T22:08:35.771Z,37.00
2023-01-09T22:13:38.574Z,52.20
2023-01-09T22:18:41.513Z,48.60
2023-01-09T22:23:44.198Z,51.70
2023-01-09T22:28:48.921Z,41.30
2023-01-09T22:33:53.368Z,45.50
2023-01-09T22:38:57.905Z,51.60
2023-01-09T22:44:00.911Z,52.60
2023-01-09T22:49:04.352Z,51.50
2023-01-09T22:54:07.124Z,44.40
2023-01-09T22:59:09.922Z,46.90
2023-01-09T23:04:13.988Z,42.80
2023-01-09T23:09:16.866Z,46.30
2023-01-09T23:14:21.616Z,51.00
2023-01-09T23:19:24.364Z,46.60
2023-01-09T23:24:28.343Z,34.80
2023-01-09T23:29:31.137Z,52.30
2023-01-09T23:34:33.939Z,50.00
2023-01-09T23:39:36.850Z,49.30
2023-01-09T23:44:39.646Z,37.00
2023-01-09T23:49:42.467Z,56.50
2023-01-09T23:54:45.478Z,51.40
2023-01-09T23:59:48.362Z,48.30
